Time;durP1;ratioP1;P1;durP2;ratioP2;P2;SDS_P1;SDS_P2;PMS_P1;PMS_P2;Temp;Humidity;BMP_temperature;BMP_pressure;BME280_temperature;BME280_humidity;BME280_pressure;Samples;Min_cycle;Max_cycle;Signal;HPM_P1;HPM_P2
2023/01/08 00:01:51;;;;;;;3.10;2.90;;;11.10;94.90;;;;;;943558;149;27356;-74
2023/01/08 00:04:18;;;;;;;3.07;2.80;;;11.10;94.70;;;;;;943923;148;27339;-75
2023/01/08 00:06:44;;;;;;;2.97;2.70;;;11.20;94.60;;;;;;944607;149;27302;-75
2023/01/08 00:09:11;;;;;;;3.83;3.30;;;11.20;94.30;;;;;;944410;149;27288;-78
2023/01/08 00:11:37;;;;;;;3.93;3.23;;;11.20;94.20;;;;;;943982;149;27451;-74
2023/01/08 00:14:04;;;;;;;3.57;3.27;;;11.20;94.20;;;;;;943566;148;27336;-76
2023/01/08 00:16:31;;;;;;;2.70;2.50;;;11.10;94.20;;;;;;944404;149;27366;-75
2023/01/08 00:18:57;;;;;;;3.37;3.07;;;11.10;94.40;;;;;;944357;149;27409;-75
2023/01/08 00:21:24;;;;;;;2.83;2.63;;;11.10;94.60;;;;;;944410;149;27450;-78
2023/01/08 00:23:50;;;;;;;2.83;2.50;;;11.10;94.80;;;;;;943789;148;27452;-74
2023/01/08 00:26:17;;;;;;;3.13;2.60;;;11.10;95.20;;;;;;944348;149;27452;-75
2023/01/08 00:28:43;;;;;;;3.47;3.17;;;11.10;95.50;;;;;;943821;148;27316;-78
2023/01/08 00:31:10;;;;;;;3.10;2.90;;;11.10;95.90;;;;;;943799;148;27429;-75
2023/01/08 00:33:37;;;;;;;3.20;2.80;;;11.20;96.20;;;;;;943826;148;27456;-79
2023/01/08 00:36:06;;;;;;;3.73;2.80;;;11.20;96.40;;;;;;944728;149;27792;-74
2023/01/08 00:38:33;;;;;;;3.27;2.77;;;11.20;96.50;;;;;;943031;149;27421;-74
2023/01/08 00:40:59;;;;;;;3.83;2.63;;;11.30;96.70;;;;;;944220;149;27352;-76
2023/01/08 00:43:26;;;;;;;2.80;2.60;;;11.30;96.70;;;;;;944036;149;27303;-78
2023/01/08 00:45:52;;;;;;;2.80;2.60;;;11.30;96.80;;;;;;949054;148;27455;-75
2023/01/08 00:48:21;;;;;;;2.97;2.77;;;11.40;96.80;;;;;;934699;149;27367;-75
2023/01/08 00:50:46;;;;;;;3.07;2.80;;;11.40;96.90;;;;;;952902;147;27299;-74
2023/01/08 00:53:12;;;;;;;3.00;2.70;;;11.50;96.90;;;;;;934440;149;27381;-78
2023/01/08 00:55:39;;;;;;;2.77;2.50;;;11.50;96.80;;;;;;952021;147;27342;-75
2023/01/08 00:58:05;;;;;;;3.07;2.77;;;11.50;96.80;;;;;;935052;149;27361;-74
2023/01/08 01:00:32;;;;;;;3.23;3.03;;;11.60;96.60;;;;;;951831;147;27376;-75
2023/01/08 01:02:59;;;;;;;3.73;3.00;;;11.50;96.40;;;;;;934889;149;27399;-78
2023/01/08 01:05:25;;;;;;;3.17;2.87;;;11.60;96.20;;;;;;927976;149;27358;-79
2023/01/08 01:07:52;;;;;;;3.37;3.07;;;11.50;96.00;;;;;;927647;150;27350;-74
2023/01/08 01:10:18;;;;;;;3.40;3.10;;;11.50;95.90;;;;;;935244;149;27368;-75
2023/01/08 01:12:45;;;;;;;3.13;2.90;;;11.50;95.90;;;;;;953649;147;27707;-77
2023/01/08 01:15:12;;;;;;;4.07;3.07;;;11.50;95.80;;;;;;927092;150;27322;-77
2023/01/08 01:17:38;;;;;;;2.93;2.73;;;11.50;95.80;;;;;;935219;149;27357;-78
2023/01/08 01:20:05;;;;;;;2.73;2.53;;;11.50;95.80;;;;;;936921;150;27358;-75
2023/01/08 01:22:31;;;;;;;3.23;2.97;;;11.50;95.80;;;;;;927272;150;27508;-75
2023/01/08 01:24:58;;;;;;;3.00;2.80;;;11.50;95.80;;;;;;951246;147;27333;-75
2023/01/08 01:27:25;;;;;;;3.43;2.70;;;11.50;95.80;;;;;;937062;149;27451;-78
2023/01/08 01:29:51;;;;;;;3.27;2.97;;;11.50;95.80;;;;;;951898;147;27428;-74
2023/01/08 01:32:18;;;;;;;4.20;2.93;;;11.50;95.80;;;;;;927779;149;27392;-75
2023/01/08 01:34:44;;;;;;;3.20;2.80;;;11.50;95.90;;;;;;936366;149;27410;-75
2023/01/08 01:37:14;;;;;;;3.77;3.30;;;11.50;95.90;;;;;;950508;146;27440;-75
2023/01/08 01:39:42;;;;;;;4.23;3.50;;;11.50;95.90;;;;;;936409;149;27830;-74
2023/01/08 01:42:38;;;;;;;2.83;2.63;;;11.50;96.00;;;;;;929074;149;27733;-75
2023/01/08 01:44:39;;;;;;;3.80;2.80;;;11.50;96.00;;;;;;932030;150;27243;-75
2023/01/08 01:47:21;;;;;;;2.87;2.67;;;11.50;96.00;;;;;;951802;147;27306;-77
2023/01/08 01:49:53;;;;;;;2.73;2.53;;;11.60;96.10;;;;;;936053;149;27987;-78
2023/01/08 01:52:21;;;;;;;3.33;3.03;;;11.60;96.00;;;;;;942346;147;27333;-75
2023/01/08 01:54:46;;;;;;;2.87;2.60;;;11.60;96.00;;;;;;952022;147;27312;-74
2023/01/08 01:57:13;;;;;;;3.23;2.93;;;11.60;96.00;;;;;;928540;150;27411;-77
2023/01/08 01:59:39;;;;;;;2.67;2.47;;;11.70;95.80;;;;;;951823;147;27853;-74
2023/01/08 02:02:06;;;;;;;3.27;2.53;;;11.70;95.80;;;;;;950108;146;27357;-74
2023/01/08 02:04:32;;;;;;;3.00;2.60;;;11.70;95.70;;;;;;934801;150;27365;-74
2023/01/08 02:07:17;;;;;;;2.50;2.30;;;11.70;95.60;;;;;;927750;150;27346;-74
2023/01/08 02:10:02;;;;;;;2.67;2.30;;;11.80;95.50;;;;;;933992;150;27365;-77
2023/01/08 02:12:34;;;;;;;3.73;2.30;;;11.80;95.30;;;;;;951712;147;27470;-74
2023/01/08 02:15:20;;;;;;;2.67;2.47;;;11.80;95.10;;;;;;950222;149;27336;-75
2023/01/08 02:17:48;;;;;;;2.57;2.37;;;11.80;95.10;;;;;;923427;151;27359;-75
2023/01/08 02:20:14;;;;;;;2.73;2.53;;;11.80;95.10;;;;;;920944;152;27416;-75
2023/01/08 02:22:44;;;;;;;3.60;2.30;;;11.80;95.10;;;;;;913668;149;27459;-77
2023/01/08 02:25:13;;;;;;;2.60;2.40;;;11.80;95.10;;;;;;950080;146;27263;-77
2023/01/08 02:27:39;;;;;;;2.93;2.50;;;11.80;95.00;;;;;;933343;149;27334;-78
2023/01/08 02:30:07;;;;;;;2.17;2.07;;;11.80;95.00;;;;;;952502;147;27343;-76
2023/01/08 02:32:34;;;;;;;2.53;2.13;;;11.80;95.00;;;;;;952528;147;27362;-75
2023/01/08 02:35:00;;;;;;;5.17;2.47;;;11.80;95.00;;;;;;927699;149;28015;-75
2023/01/08 02:37:27;;;;;;;3.83;2.30;;;11.80;95.10;;;;;;951895;147;27690;-77
2023/01/08 02:40:03;;;;;;;2.97;2.30;;;11.80;95.10;;;;;;935260;152;27349;-76
2023/01/08 02:42:38;;;;;;;2.80;2.60;;;11.80;95.20;;;;;;953127;147;27609;-79
2023/01/08 02:45:26;;;;;;;2.30;2.20;;;11.80;95.10;;;;;;934175;149;27455;-79
2023/01/08 02:47:55;;;;;;;3.03;2.33;;;11.80;95.20;;;;;;951560;147;27905;-75
2023/01/08 02:50:24;;;;;;;3.10;2.33;;;11.70;95.30;;;;;;919667;151;27397;-75
2023/01/08 02:53:15;;;;;;;2.83;2.53;;;11.70;95.40;;;;;;957685;145;27404;-75
2023/01/08 02:55:42;;;;;;;2.63;2.43;;;11.70;95.60;;;;;;946965;148;27442;-75
2023/01/08 02:58:09;;;;;;;2.57;2.37;;;11.70;95.60;;;;;;963935;145;27325;-74
2023/01/08 03:00:35;;;;;;;2.73;2.17;;;11.70;95.80;;;;;;945048;148;27265;-75
2023/01/08 03:03:08;;;;;;;3.00;2.80;;;11.70;96.00;;;;;;964654;145;27317;-75
2023/01/08 03:05:34;;;;;;;2.40;2.20;;;11.70;96.20;;;;;;945784;149;27389;-78
2023/01/08 03:08:01;;;;;;;2.53;2.33;;;11.70;96.20;;;;;;946727;149;27359;-75
2023/01/08 03:10:28;;;;;;;2.67;2.47;;;11.70;96.30;;;;;;948320;148;27320;-76
2023/01/08 03:13:03;;;;;;;2.87;2.40;;;11.70;96.50;;;;;;946783;148;27413;-74
2023/01/08 03:15:30;;;;;;;2.60;2.40;;;11.80;96.60;;;;;;963929;145;27332;-75
2023/01/08 03:17:57;;;;;;;2.90;2.70;;;11.80;96.60;;;;;;946524;148;27470;-74
2023/01/08 03:20:23;;;;;;;3.60;2.67;;;11.80;96.40;;;;;;964116;145;27340;-77
2023/01/08 03:22:50;;;;;;;2.60;2.40;;;11.80;96.90;;;;;;942251;149;27994;-76
2023/01/08 03:25:16;;;;;;;2.70;2.50;;;11.80;97.10;;;;;;964112;145;27308;-76
2023/01/08 03:27:43;;;;;;;2.70;2.50;;;11.80;97.20;;;;;;964071;145;27385;-78
2023/01/08 03:30:10;;;;;;;2.53;2.33;;;11.80;97.30;;;;;;945410;149;27386;-75
2023/01/08 03:32:36;;;;;;;2.60;2.40;;;11.80;97.40;;;;;;942599;149;27333;-76
2023/01/08 03:35:03;;;;;;;2.90;2.60;;;11.80;97.50;;;;;;963811;146;27310;-75
2023/01/08 03:37:29;;;;;;;2.77;2.50;;;11.80;97.50;;;;;;964441;145;27346;-75
2023/01/08 03:40:05;;;;;;;2.50;2.30;;;11.90;97.70;;;;;;963896;145;27337;-78
2023/01/08 03:42:31;;;;;;;2.90;2.43;;;11.90;97.80;;;;;;945647;149;27417;-75
2023/01/08 03:45:01;;;;;;;3.23;2.70;;;11.90;97.80;;;;;;964561;145;27254;-75
2023/01/08 03:47:30;;;;;;;2.40;2.20;;;11.90;97.60;;;;;;947436;148;27319;-76
2023/01/08 03:49:57;;;;;;;3.03;2.50;;;11.90;98.00;;;;;;964376;146;27349;-74
2023/01/08 03:52:26;;;;;;;2.97;2.53;;;11.90;98.10;;;;;;946719;148;27359;-77
2023/01/08 03:54:53;;;;;;;3.10;2.90;;;11.90;98.10;;;;;;962947;146;27330;-77
2023/01/08 03:57:19;;;;;;;2.97;2.60;;;11.90;98.10;;;;;;964071;146;27416;-77
2023/01/08 03:59:46;;;;;;;2.57;2.37;;;11.90;98.30;;;;;;964906;146;27329;-77
2023/01/08 04:02:13;;;;;;;3.00;2.50;;;11.90;98.40;;;;;;963934;146;27810;-77
2023/01/08 04:04:39;;;;;;;2.97;2.67;;;11.90;98.40;;;;;;946764;149;27339;-77
2023/01/08 04:07:06;;;;;;;4.70;2.53;;;11.90;98.50;;;;;;964892;145;27283;-76
2023/01/08 04:09:32;;;;;;;2.77;2.57;;;11.90;98.60;;;;;;963763;146;27314;-78
2023/01/08 04:11:59;;;;;;;3.37;3.00;;;11.90;98.60;;;;;;968284;145;27779;-77
2023/01/08 04:14:25;;;;;;;2.67;2.47;;;11.90;98.70;;;;;;963702;146;27423;-77
2023/01/08 04:16:52;;;;;;;2.47;2.27;;;11.90;98.80;;;;;;964521;146;27748;-77
2023/01/08 04:19:19;;;;;;;2.77;2.57;;;11.80;98.90;;;;;;964385;145;27328;-77
2023/01/08 04:21:45;;;;;;;2.80;2.60;;;11.80;98.90;;;;;;964879;146;27370;-78
2023/01/08 04:24:12;;;;;;;2.67;2.47;;;11.80;99.10;;;;;;963475;145;27340;-77
2023/01/08 04:26:38;;;;;;;3.03;2.77;;;11.80;99.20;;;;;;964300;145;27274;-77
2023/01/08 04:29:05;;;;;;;2.57;2.37;;;11.80;99.30;;;;;;964218;146;27236;-77
2023/01/08 04:31:32;;;;;;;2.80;2.60;;;11.80;99.50;;;;;;968238;145;27669;-78
2023/01/08 04:33:58;;;;;;;2.60;2.40;;;11.80;99.60;;;;;;947313;148;27433;-77
2023/01/08 04:36:25;;;;;;;3.10;2.40;;;11.80;99.70;;;;;;947909;148;27384;-77
2023/01/08 04:38:51;;;;;;;3.60;2.30;;;11.80;99.70;;;;;;964612;145;27329;-77
2023/01/08 04:41:18;;;;;;;2.70;2.50;;;11.80;99.90;;;;;;963771;148;27397;-77
2023/01/08 04:43:45;;;;;;;3.00;2.63;;;11.80;99.80;;;;;;963351;148;27344;-78
2023/01/08 04:46:11;;;;;;;2.90;2.70;;;11.80;99.80;;;;;;964756;146;27365;-77
2023/01/08 04:48:38;;;;;;;4.47;3.07;;;11.80;99.90;;;;;;964605;147;27250;-78
2023/01/08 04:51:04;;;;;;;3.20;2.90;;;11.70;99.70;;;;;;964322;146;27329;-77
2023/01/08 04:53:31;;;;;;;4.00;2.73;;;11.70;99.80;;;;;;964265;146;27372;-78
2023/01/08 04:55:57;;;;;;;3.50;2.73;;;11.70;99.90;;;;;;964665;147;27345;-78
2023/01/08 04:58:24;;;;;;;2.77;2.57;;;11.70;99.90;;;;;;963655;147;27664;-78
2023/01/08 05:00:51;;;;;;;3.03;2.83;;;11.70;99.90;;;;;;964408;147;27323;-77
2023/01/08 05:03:17;;;;;;;3.27;2.83;;;11.70;99.90;;;;;;960362;146;27242;-77
2023/01/08 05:05:44;;;;;;;3.10;2.80;;;11.60;99.90;;;;;;959052;148;27405;-78
2023/01/08 05:08:10;;;;;;;3.20;2.90;;;11.60;99.90;;;;;;959219;149;27352;-77
2023/01/08 05:10:37;;;;;;;3.17;2.87;;;11.60;99.90;;;;;;960324;147;27302;-76
2023/01/08 05:13:04;;;;;;;3.07;2.77;;;11.60;99.90;;;;;;960000;146;27293;-77
2023/01/08 05:15:30;;;;;;;2.80;2.60;;;11.60;99.90;;;;;;959743;148;27282;-77
2023/01/08 05:18:00;;;;;;;2.80;2.60;;;11.60;99.90;;;;;;959227;148;27470;-78
2023/01/08 05:20:27;;;;;;;2.83;2.63;;;11.50;99.90;;;;;;958745;149;27461;-77
2023/01/08 05:22:53;;;;;;;3.07;2.77;;;11.50;99.90;;;;;;959559;147;27408;-77
2023/01/08 05:25:20;;;;;;;2.73;2.40;;;11.50;99.90;;;;;;959604;149;27350;-77
2023/01/08 05:27:46;;;;;;;3.53;3.00;;;11.50;99.90;;;;;;959843;148;27247;-77
2023/01/08 05:30:13;;;;;;;3.00;2.70;;;11.40;99.90;;;;;;959230;149;27725;-76
2023/01/08 05:32:39;;;;;;;3.10;2.80;;;11.40;99.90;;;;;;959790;148;28343;-77
2023/01/08 05:35:06;;;;;;;4.30;3.30;;;11.40;99.90;;;;;;959497;148;27389;-77
2023/01/08 05:37:35;;;;;;;3.83;3.00;;;11.40;99.90;;;;;;959105;149;27243;-77
2023/01/08 05:40:02;;;;;;;3.57;3.00;;;11.40;99.90;;;;;;958751;148;27357;-77
2023/01/08 05:42:28;;;;;;;2.97;2.67;;;11.30;99.90;;;;;;959506;146;27907;-77
2023/01/08 05:44:55;;;;;;;3.10;2.90;;;11.30;99.90;;;;;;959463;148;27411;-77
2023/01/08 05:47:22;;;;;;;3.17;2.87;;;11.30;99.90;;;;;;959845;148;27305;-76
2023/01/08 05:49:48;;;;;;;2.97;2.70;;;11.30;99.90;;;;;;959280;148;27275;-78
2023/01/08 05:52:15;;;;;;;3.20;2.80;;;11.30;99.90;;;;;;959820;149;27447;-77
2023/01/08 05:54:41;;;;;;;3.10;2.90;;;11.20;99.90;;;;;;959902;146;27338;-77
2023/01/08 05:57:08;;;;;;;3.27;2.90;;;11.20;99.90;;;;;;960026;149;27317;-77
2023/01/08 05:59:35;;;;;;;3.50;2.50;;;11.20;99.90;;;;;;959412;146;27243;-78
2023/01/08 06:02:01;;;;;;;2.90;2.70;;;11.20;99.90;;;;;;959761;148;27347;-77
2023/01/08 06:04:28;;;;;;;2.90;2.70;;;11.20;99.90;;;;;;959517;146;27460;-77
2023/01/08 06:06:54;;;;;;;2.80;2.60;;;11.20;99.90;;;;;;959990;149;27390;-77
2023/01/08 06:09:21;;;;;;;2.80;2.60;;;11.20;99.90;;;;;;959453;148;27840;-78
2023/01/08 06:11:48;;;;;;;3.00;2.80;;;11.10;99.90;;;;;;959548;149;27357;-78
2023/01/08 06:14:14;;;;;;;5.03;2.93;;;11.10;99.90;;;;;;959612;147;27469;-77
2023/01/08 06:16:41;;;;;;;2.77;2.57;;;11.10;99.90;;;;;;959682;146;27333;-77
2023/01/08 06:19:07;;;;;;;2.80;2.60;;;11.10;99.90;;;;;;959889;149;27272;-78
2023/01/08 06:21:34;;;;;;;3.03;2.70;;;11.10;99.90;;;;;;960013;147;27811;-77
2023/01/08 06:24:00;;;;;;;3.07;2.70;;;11.10;99.90;;;;;;959592;146;27350;-77
2023/01/08 06:26:27;;;;;;;3.73;2.67;;;11.10;99.90;;;;;;958590;148;28833;-78
2023/01/08 06:28:54;;;;;;;3.27;2.70;;;11.10;99.90;;;;;;960124;148;27259;-78
2023/01/08 06:31:20;;;;;;;4.10;2.70;;;11.00;99.90;;;;;;959553;147;27309;-78
2023/01/08 06:33:47;;;;;;;3.00;2.80;;;11.10;99.90;;;;;;959772;147;27407;-78
2023/01/08 06:36:13;;;;;;;3.90;2.57;;;11.10;99.90;;;;;;959795;149;27434;-77
2023/01/08 06:38:40;;;;;;;3.60;2.67;;;11.10;99.90;;;;;;959918;147;27403;-77
2023/01/08 06:41:07;;;;;;;3.03;2.40;;;11.10;99.90;;;;;;959684;147;27407;-77
2023/01/08 06:43:33;;;;;;;2.83;2.63;;;11.10;99.90;;;;;;959749;146;27414;-78
2023/01/08 06:46:00;;;;;;;3.37;2.77;;;11.10;99.90;;;;;;959866;148;27341;-78
2023/01/08 06:48:26;;;;;;;2.80;2.60;;;11.10;99.90;;;;;;959243;146;27365;-77
2023/01/08 06:50:53;;;;;;;2.57;2.37;;;11.10;99.90;;;;;;959039;149;27324;-77
2023/01/08 06:53:20;;;;;;;3.23;2.93;;;11.10;99.90;;;;;;959034;148;27347;-77
2023/01/08 06:55:46;;;;;;;3.17;2.87;;;11.10;99.90;;;;;;955397;147;27355;-78
2023/01/08 06:58:13;;;;;;;3.10;2.50;;;11.10;99.90;;;;;;952880;148;27359;-78
2023/01/08 07:00:39;;;;;;;2.53;2.33;;;11.10;99.90;;;;;;953255;148;28009;-77
2023/01/08 07:03:06;;;;;;;3.43;3.13;;;11.10;99.90;;;;;;952995;147;27395;-77
2023/01/08 07:05:32;;;;;;;3.57;2.80;;;11.10;99.90;;;;;;953431;148;27287;-78
2023/01/08 07:07:59;;;;;;;3.37;2.63;;;11.10;99.90;;;;;;952431;149;27455;-78
2023/01/08 07:10:26;;;;;;;2.97;2.67;;;11.10;99.90;;;;;;953341;148;27365;-78
2023/01/08 07:12:52;;;;;;;2.97;2.77;;;11.10;99.90;;;;;;953594;147;27749;-77
2023/01/08 07:15:19;;;;;;;2.93;2.63;;;11.10;99.90;;;;;;952627;147;27267;-78
2023/01/08 07:17:45;;;;;;;3.20;2.93;;;11.10;99.90;;;;;;952972;149;27634;-78
2023/01/08 07:20:12;;;;;;;3.40;2.57;;;11.10;99.90;;;;;;953198;150;27349;-77
2023/01/08 07:22:39;;;;;;;3.30;2.70;;;11.10;99.90;;;;;;953037;149;27491;-77
2023/01/08 07:25:06;;;;;;;4.03;2.27;;;11.10;99.90;;;;;;952562;147;27230;-74
2023/01/08 07:27:32;;;;;;;2.70;2.50;;;11.10;99.90;;;;;;953450;148;27402;-77
2023/01/08 07:29:58;;;;;;;4.40;3.77;;;11.10;99.90;;;;;;953203;150;27415;-78
2023/01/08 07:32:25;;;;;;;2.70;2.50;;;11.10;99.90;;;;;;953241;148;27346;-77
2023/01/08 07:34:53;;;;;;;3.03;2.30;;;11.10;99.90;;;;;;953465;147;27262;-78
2023/01/08 07:37:18;;;;;;;3.10;2.80;;;11.10;99.90;;;;;;952977;148;27330;-78
2023/01/08 07:39:45;;;;;;;2.50;2.30;;;11.10;99.90;;;;;;952902;148;27395;-78
2023/01/08 07:42:11;;;;;;;2.30;2.10;;;11.10;99.90;;;;;;953328;148;27395;-78
2023/01/08 07:44:38;;;;;;;2.63;2.20;;;11.10;99.90;;;;;;953459;147;27434;-78
2023/01/08 07:47:04;;;;;;;2.50;2.30;;;11.10;99.90;;;;;;952289;147;27323;-78
2023/01/08 07:49:31;;;;;;;2.07;1.93;;;11.10;99.90;;;;;;952632;150;27334;-77
2023/01/08 07:51:58;;;;;;;2.17;2.07;;;11.20;99.90;;;;;;952762;148;27256;-78
2023/01/08 07:54:24;;;;;;;2.00;1.90;;;11.20;99.90;;;;;;953143;148;27354;-78
2023/01/08 07:56:51;;;;;;;4.90;3.47;;;11.20;99.90;;;;;;959135;147;28254;-78
2023/01/08 07:59:17;;;;;;;2.70;2.43;;;11.20;99.90;;;;;;958932;148;27339;-77
2023/01/08 08:01:44;;;;;;;2.63;2.50;;;11.20;99.90;;;;;;958992;148;27433;-78
2023/01/08 08:04:11;;;;;;;2.13;2.00;;;11.20;99.90;;;;;;960342;146;27349;-78
2023/01/08 08:06:37;;;;;;;2.53;2.00;;;11.20;99.90;;;;;;959579;149;27441;-77
2023/01/08 08:09:04;;;;;;;2.20;1.60;;;11.30;99.90;;;;;;960175;149;27394;-77
2023/01/08 08:11:30;;;;;;;1.80;1.70;;;11.30;99.90;;;;;;960439;148;27387;-78
2023/01/08 08:13:57;;;;;;;1.80;1.63;;;11.30;99.90;;;;;;959066;146;27416;-78
2023/01/08 08:16:24;;;;;;;2.10;1.80;;;11.30;99.90;;;;;;959878;149;27349;-78
2023/01/08 08:18:50;;;;;;;1.90;1.80;;;11.30;99.90;;;;;;958915;146;27253;-77
2023/01/08 08:21:17;;;;;;;1.80;1.70;;;11.40;99.90;;;;;;959118;147;27371;-78
2023/01/08 08:23:43;;;;;;;1.90;1.80;;;11.40;99.90;;;;;;958475;146;27375;-78
2023/01/08 08:26:10;;;;;;;2.07;1.87;;;11.40;99.90;;;;;;959656;148;27363;-78
2023/01/08 08:28:36;;;;;;;2.40;1.70;;;11.40;99.90;;;;;;958995;146;27488;-78
2023/01/08 08:31:03;;;;;;;1.63;1.53;;;11.50;99.90;;;;;;959330;148;27650;-78
2023/01/08 08:33:30;;;;;;;1.93;1.83;;;11.50;99.90;;;;;;959316;146;27337;-78
2023/01/08 08:35:56;;;;;;;2.13;1.93;;;11.50;99.90;;;;;;958847;147;27365;-78
2023/01/08 08:38:25;;;;;;;2.03;1.87;;;11.60;99.90;;;;;;958868;148;27352;-78
2023/01/08 08:40:49;;;;;;;2.90;2.60;;;11.60;99.90;;;;;;958364;149;27302;-78
2023/01/08 08:43:16;;;;;;;2.50;2.30;;;11.60;99.90;;;;;;960153;146;27301;-78
2023/01/08 08:45:43;;;;;;;2.93;2.50;;;11.60;99.90;;;;;;960132;148;27251;-78
2023/01/08 08:48:10;;;;;;;2.83;2.20;;;11.60;99.90;;;;;;959454;146;27333;-78
2023/01/08 08:50:36;;;;;;;2.97;2.73;;;11.70;99.90;;;;;;959628;148;27353;-78
2023/01/08 08:53:02;;;;;;;2.47;2.27;;;11.70;99.90;;;;;;959469;148;27344;-78
2023/01/08 08:55:29;;;;;;;2.43;2.23;;;11.70;99.90;;;;;;958788;147;27271;-78
2023/01/08 08:57:56;;;;;;;2.70;2.50;;;11.70;99.90;;;;;;952659;149;27307;-78
2023/01/08 09:00:22;;;;;;;3.10;2.20;;;11.70;99.90;;;;;;952535;147;27428;-78
2023/01/08 09:02:52;;;;;;;1.90;1.80;;;11.70;99.90;;;;;;952854;147;27466;-78
2023/01/08 09:05:18;;;;;;;1.80;1.70;;;11.80;99.90;;;;;;952092;149;27335;-78
2023/01/08 09:07:45;;;;;;;1.83;1.73;;;11.80;99.90;;;;;;953511;148;27386;-77
2023/01/08 09:10:11;;;;;;;2.90;1.57;;;11.80;99.90;;;;;;953385;148;27279;-78
2023/01/08 09:12:38;;;;;;;2.10;1.90;;;11.80;99.90;;;;;;952812;149;27358;-78
2023/01/08 09:15:05;;;;;;;2.20;1.70;;;11.80;99.90;;;;;;952179;147;27311;-77
2023/01/08 09:17:32;;;;;;;1.70;1.60;;;11.90;99.90;;;;;;953455;149;27349;-77
2023/01/08 09:19:58;;;;;;;1.77;1.67;;;11.90;99.90;;;;;;953671;148;27376;-80
2023/01/08 09:22:24;;;;;;;1.87;1.77;;;11.90;99.90;;;;;;952581;147;27388;-77
2023/01/08 09:24:51;;;;;;;1.55;1.45;;;11.90;99.90;;;;;;952992;147;28627;-77
2023/01/08 09:27:17;;;;;;;2.97;1.77;;;11.90;99.90;;;;;;953190;150;27303;-76
2023/01/08 09:29:44;;;;;;;2.03;1.90;;;11.90;99.90;;;;;;952912;149;27458;-77
2023/01/08 09:32:11;;;;;;;1.77;1.67;;;11.90;99.90;;;;;;953155;147;27338;-77
2023/01/08 09:34:37;;;;;;;3.03;1.70;;;11.90;99.90;;;;;;953433;147;27357;-77
2023/01/08 09:37:04;;;;;;;3.17;2.20;;;12.00;99.90;;;;;;953324;150;27291;-77
2023/01/08 09:39:30;;;;;;;2.10;1.90;;;12.00;99.90;;;;;;953207;148;27402;-77
2023/01/08 09:41:57;;;;;;;2.00;1.90;;;12.00;99.90;;;;;;952742;147;27327;-77
2023/01/08 09:44:24;;;;;;;2.87;1.97;;;12.00;99.90;;;;;;953172;147;27458;-77
2023/01/08 09:46:50;;;;;;;2.20;2.00;;;12.00;99.90;;;;;;951903;150;27322;-77
2023/01/08 09:49:19;;;;;;;2.50;2.17;;;12.00;99.90;;;;;;948331;147;27450;-77
2023/01/08 09:51:46;;;;;;;2.77;2.57;;;12.10;99.90;;;;;;952769;147;27387;-77
2023/01/08 09:54:12;;;;;;;2.50;2.30;;;12.10;99.90;;;;;;953538;147;27352;-77
2023/01/08 09:56:39;;;;;;;2.23;2.13;;;12.10;99.90;;;;;;954424;147;27470;-77
2023/01/08 09:59:06;;;;;;;1.80;1.70;;;12.20;99.90;;;;;;959434;148;27318;-77
2023/01/08 10:01:35;;;;;;;1.90;1.80;;;12.20;99.90;;;;;;959272;147;27233;-77
2023/01/08 10:04:10;;;;;;;1.93;1.83;;;12.20;99.90;;;;;;959041;148;27478;-76
2023/01/08 10:06:37;;;;;;;1.80;1.70;;;12.30;99.90;;;;;;959660;149;27316;-76
2023/01/08 10:09:03;;;;;;;2.07;1.97;;;12.30;99.90;;;;;;959406;148;27330;-77
2023/01/08 10:11:30;;;;;;;1.80;1.70;;;12.30;99.90;;;;;;959816;148;27345;-77
2023/01/08 10:13:57;;;;;;;2.30;2.13;;;12.30;99.90;;;;;;957278;146;27426;-76
2023/01/08 10:16:32;;;;;;;2.40;2.20;;;12.40;99.90;;;;;;959565;148;27352;-77
2023/01/08 10:18:58;;;;;;;2.00;1.90;;;12.40;99.90;;;;;;959746;149;27286;-77
2023/01/08 10:21:25;;;;;;;2.27;2.08;;;12.40;99.90;;;;;;959669;149;27334;-77
2023/01/08 10:23:51;;;;;;;2.47;2.00;;;12.40;99.90;;;;;;957949;146;27438;-77
2023/01/08 10:26:24;;;;;;;2.63;1.90;;;12.50;99.90;;;;;;959821;148;27320;-77
2023/01/08 10:28:51;;;;;;;3.72;3.10;;;12.50;99.90;;;;;;957944;148;27282;-77
2023/01/08 10:31:17;;;;;;;2.10;1.90;;;12.60;99.90;;;;;;959143;148;27234;-78
2023/01/08 10:33:44;;;;;;;2.40;1.70;;;12.60;99.90;;;;;;958826;146;27441;-77
2023/01/08 10:36:16;;;;;;;2.40;2.20;;;12.60;99.90;;;;;;959645;149;27321;-77
2023/01/08 10:38:49;;;;;;;2.33;2.20;;;12.60;99.90;;;;;;957543;146;27720;-77
2023/01/08 10:41:16;;;;;;;2.20;2.00;;;12.70;99.90;;;;;;957739;149;27932;-77
2023/01/08 10:43:57;;;;;;;2.87;2.67;;;12.70;99.90;;;;;;959027;146;27314;-77
2023/01/08 10:46:26;;;;;;;2.60;2.40;;;12.70;99.90;;;;;;958692;146;27344;-77
2023/01/08 10:48:53;;;;;;;2.40;2.20;;;12.70;99.90;;;;;;958673;146;27371;-76
2023/01/08 10:51:23;;;;;;;2.95;2.75;;;12.70;99.90;;;;;;961054;148;27222;-77
2023/01/08 10:53:49;;;;;;;2.60;2.40;;;12.70;99.90;;;;;;942821;148;27775;-77
2023/01/08 10:56:22;;;;;;;2.53;2.33;;;12.80;99.90;;;;;;966326;145;27373;-76
2023/01/08 10:58:48;;;;;;;2.40;2.20;;;12.80;99.90;;;;;;953519;145;28343;-77
2023/01/08 11:01:23;;;;;;;2.40;2.20;;;12.80;99.90;;;;;;950324;146;27395;-76
2023/01/08 11:03:50;;;;;;;2.10;2.00;;;12.80;99.90;;;;;;933775;150;27460;-77
2023/01/08 11:06:20;;;;;;;2.83;1.63;;;12.80;99.90;;;;;;927463;150;27387;-76
2023/01/08 11:08:52;;;;;;;4.75;2.17;;;12.80;99.90;;;;;;932736;150;27349;-77
2023/01/08 11:11:18;;;;;;;2.33;1.90;;;12.80;99.90;;;;;;934754;150;27260;-77
2023/01/08 11:13:54;;;;;;;2.67;1.97;;;12.90;99.90;;;;;;951067;147;27457;-76
2023/01/08 11:16:22;;;;;;;2.00;1.90;;;12.90;99.90;;;;;;951103;147;27803;-76
2023/01/08 11:18:47;;;;;;;1.80;1.70;;;12.90;99.90;;;;;;952113;147;27427;-76
2023/01/08 11:21:22;;;;;;;1.65;1.55;;;13.00;99.90;;;;;;934747;149;27330;-77
2023/01/08 11:24:13;;;;;;;1.70;1.60;;;13.00;99.90;;;;;;952031;147;27343;-77
2023/01/08 11:26:37;;;;;;;2.75;1.60;;;13.10;99.90;;;;;;934392;150;27365;-77
2023/01/08 11:29:22;;;;;;;1.50;1.40;;;13.10;99.90;;;;;;934381;150;27447;-76
2023/01/08 11:32:03;;;;;;;1.82;1.47;;;13.20;99.90;;;;;;947515;148;27327;-77
2023/01/08 11:34:30;;;;;;;2.05;1.57;;;13.20;99.90;;;;;;951996;146;27887;-78
2023/01/08 11:36:56;;;;;;;1.22;1.12;;;13.30;99.90;;;;;;934251;149;27450;-77
2023/01/08 11:39:23;;;;;;;1.32;1.27;;;13.40;99.90;;;;;;950272;147;28992;-77
2023/01/08 11:42:01;;;;;;;1.20;1.20;;;13.40;99.90;;;;;;926681;150;27406;-76
2023/01/08 11:44:46;;;;;;;3.20;1.52;;;13.50;99.90;;;;;;907681;150;27335;-77
2023/01/08 11:47:37;;;;;;;1.30;1.20;;;13.50;99.90;;;;;;927743;150;27383;-77
2023/01/08 11:50:15;;;;;;;1.40;1.30;;;13.60;99.90;;;;;;927041;150;27375;-78
2023/01/08 11:52:46;;;;;;;2.27;1.60;;;13.60;99.90;;;;;;950185;147;27325;-77
2023/01/08 11:55:24;;;;;;;1.80;1.10;;;13.50;99.90;;;;;;947156;147;27422;-77
2023/01/08 11:57:59;;;;;;;1.80;1.43;;;13.50;99.90;;;;;;950197;147;27829;-77
2023/01/08 12:00:28;;;;;;;1.52;1.20;;;13.60;99.90;;;;;;933263;149;27457;-76
2023/01/08 12:02:55;;;;;;;1.00;0.90;;;13.60;99.90;;;;;;951417;147;27301;-77
2023/01/08 12:05:28;;;;;;;1.00;1.00;;;13.60;99.90;;;;;;950723;147;27246;-76
2023/01/08 12:07:57;;;;;;;1.17;1.03;;;13.60;99.90;;;;;;934136;149;27373;-77
2023/01/08 12:10:23;;;;;;;1.00;1.00;;;13.70;99.90;;;;;;948353;148;27444;-77
2023/01/08 12:13:04;;;;;;;1.00;0.90;;;13.70;99.90;;;;;;929433;149;27783;-77
2023/01/08 12:15:43;;;;;;;1.27;1.17;;;13.80;99.90;;;;;;950455;147;27355;-77
2023/01/08 12:18:24;;;;;;;1.25;0.93;;;13.80;99.90;;;;;;927823;150;27526;-77
2023/01/08 12:20:54;;;;;;;1.00;1.00;;;13.90;99.90;;;;;;951226;147;27424;-77
2023/01/08 12:23:29;;;;;;;1.02;1.02;;;13.90;99.90;;;;;;926471;150;27552;-77
2023/01/08 12:25:58;;;;;;;1.42;1.32;;;13.90;99.90;;;;;;932080;150;27842;-77
2023/01/08 12:28:31;;;;;;;1.30;1.22;;;13.90;99.90;;;;;;936383;149;28457;-77
2023/01/08 12:31:13;;;;;;;1.30;1.20;;;13.90;99.90;;;;;;948954;147;27339;-77
2023/01/08 12:33:51;;;;;;;1.35;1.35;;;13.90;99.90;;;;;;926923;150;27358;-77
2023/01/08 12:36:18;;;;;;;1.70;1.50;;;13.90;99.90;;;;;;924479;149;27415;-77
2023/01/08 12:38:45;;;;;;;1.13;1.03;;;13.90;99.90;;;;;;940726;149;27465;-76
2023/01/08 12:41:11;;;;;;;1.35;1.25;;;13.90;99.90;;;;;;941590;149;27355;-77
2023/01/08 12:43:49;;;;;;;2.08;1.20;;;13.90;99.90;;;;;;939217;149;27277;-76
2023/01/08 12:46:16;;;;;;;1.30;1.20;;;13.90;99.90;;;;;;940624;148;27351;-77
2023/01/08 12:48:42;;;;;;;1.10;1.10;;;13.90;99.90;;;;;;943217;149;27457;-77
2023/01/08 12:51:30;;;;;;;2.25;1.40;;;14.00;99.90;;;;;;926745;150;27341;-76
2023/01/08 12:54:19;;;;;;;1.32;1.22;;;14.00;99.90;;;;;;931803;150;27390;-77